sensor_id;sensor_type;location;lat;lon;timestamp;P1;durP1;ratioP1;P2;durP2;ratioP2
36371;SDS011;22398;51.346;12.372;2023-05-01T00:03:18;13.40;;;6.60;;
36371;SDS011;22398;51.346;12.372;2023-05-01T00:08:23;14.88;;;8.73;;
36371;SDS011;22398;51.346;12.372;2023-05-01T00:13:27;12.43;;;6.90;;
36371;SDS011;22398;51.346;12.372;2023-05-01T00:18:30;17.25;;;7.57;;
36371;SDS011;22398;51.346;12.372;2023-05-01T00:23:36;15.00;;;8.18;;
36371;SDS011;22398;51.346;12.372;2023-05-01T00:28:39;17.00;;;8.37;;
36371;SDS011;22398;51.346;12.372;2023-05-01T00:33:43;19.20;;;7.82;;
36371;SDS011;22398;51.346;12.372;2023-05-01T00:38:48;24.17;;;9.32;;
36371;SDS011;22398;51.346;12.372;2023-05-01T00:43:51;17.98;;;8.40;;
36371;SDS011;22398;51.346;12.372;2023-05-01T00:48:55;20.38;;;7.32;;
36371;SDS011;22398;51.346;12.372;2023-05-01T00:54:01;18.15;;;7.70;;
36371;SDS011;22398;51.346;12.372;2023-05-01T00:59:05;18.00;;;7.00;;
36371;SDS011;22398;51.346;12.372;2023-05-01T01:04:08;17.30;;;7.88;;
36371;SDS011;22398;51.346;12.372;2023-05-01T01:09:16;15.65;;;6.20;;
36371;SDS011;22398;51.346;12.372;2023-05-01T01:14:26;17.08;;;5.90;;
36371;SDS011;22398;51.346;12.372;2023-05-01T01:19:44;11.40;;;5.70;;
36371;SDS011;22398;51.346;12.372;2023-05-01T01:25:13;20.58;;;6.50;;
36371;SDS011;22398;51.346;12.372;2023-05-01T01:30:34;11.07;;;5.47;;
36371;SDS011;22398;51.346;12.372;2023-05-01T01:36:05;11.38;;;5.53;;
36371;SDS011;22398;51.346;12.372;2023-05-01T01:41:13;9.93;;;5.38;;
36371;SDS011;22398;51.346;12.372;2023-05-01T01:46:21;8.50;;;4.47;;
36371;SDS011;22398;51.346;12.372;2023-05-01T01:51:28;15.82;;;5.00;;
36371;SDS011;22398;51.346;12.372;2023-05-01T01:56:32;12.90;;;5.28;;
36371;SDS011;22398;51.346;12.372;2023-05-01T02:01:39;9.85;;;5.60;;
36371;SDS011;22398;51.346;12.372;2023-05-01T02:06:46;10.00;;;4.55;;
36371;SDS011;22398;51.346;12.372;2023-05-01T02:11:52;10.32;;;5.30;;
36371;SDS011;22398;51.346;12.372;2023-05-01T02:16:57;14.30;;;4.70;;
36371;SDS011;22398;51.346;12.372;2023-05-01T02:22:03;9.73;;;4.20;;
36371;SDS011;22398;51.346;12.372;2023-05-01T02:27:10;11.77;;;4.72;;
36371;SDS011;22398;51.346;12.372;2023-05-01T02:32:17;12.10;;;4.90;;
36371;SDS011;22398;51.346;12.372;2023-05-01T02:37:23;10.73;;;4.90;;
36371;SDS011;22398;51.346;12.372;2023-05-01T02:42:27;11.95;;;5.10;;
36371;SDS011;22398;51.346;12.372;2023-05-01T02:47:32;12.02;;;5.28;;
36371;SDS011;22398;51.346;12.372;2023-05-01T02:52:40;11.13;;;5.45;;
36371;SDS011;22398;51.346;12.372;2023-05-01T02:58:00;12.05;;;5.30;;
36371;SDS011;22398;51.346;12.372;2023-05-01T03:03:04;10.02;;;5.72;;
36371;SDS011;22398;51.346;12.372;2023-05-01T03:08:09;11.18;;;5.25;;
36371;SDS011;22398;51.346;12.372;2023-05-01T03:13:13;12.65;;;5.15;;
36371;SDS011;22398;51.346;12.372;2023-05-01T03:18:17;11.23;;;4.82;;
36371;SDS011;22398;51.346;12.372;2023-05-01T03:23:22;12.88;;;5.60;;
36371;SDS011;22398;51.346;12.372;2023-05-01T03:28:26;13.57;;;6.18;;
36371;SDS011;22398;51.346;12.372;2023-05-01T03:33:30;19.48;;;6.50;;
36371;SDS011;22398;51.346;12.372;2023-05-01T03:38:35;13.85;;;6.38;;
36371;SDS011;22398;51.346;12.372;2023-05-01T03:43:45;19.55;;;5.63;;
36371;SDS011;22398;51.346;12.372;2023-05-01T03:49:00;13.27;;;5.63;;
36371;SDS011;22398;51.346;12.372;2023-05-01T03:54:09;14.45;;;6.38;;
36371;SDS011;22398;51.346;12.372;2023-05-01T03:59:31;15.00;;;6.18;;
36371;SDS011;22398;51.346;12.372;2023-05-01T04:04:35;15.48;;;6.88;;
36371;SDS011;22398;51.346;12.372;2023-05-01T04:09:41;16.20;;;7.25;;
36371;SDS011;22398;51.346;12.372;2023-05-01T04:14:45;21.80;;;6.47;;
36371;SDS011;22398;51.346;12.372;2023-05-01T04:19:49;22.48;;;7.60;;
36371;SDS011;22398;51.346;12.372;2023-05-01T04:24:54;19.30;;;8.73;;
36371;SDS011;22398;51.346;12.372;2023-05-01T04:29:58;22.92;;;10.30;;
36371;SDS011;22398;51.346;12.372;2023-05-01T04:35:04;21.83;;;9.93;;
36371;SDS011;22398;51.346;12.372;2023-05-01T04:40:10;24.15;;;10.25;;
36371;SDS011;22398;51.346;12.372;2023-05-01T04:45:15;30.88;;;12.88;;
36371;SDS011;22398;51.346;12.372;2023-05-01T04:50:19;27.60;;;11.98;;
36371;SDS011;22398;51.346;12.372;2023-05-01T04:55:24;24.17;;;11.65;;
36371;SDS011;22398;51.346;12.372;2023-05-01T05:00:46;27.80;;;12.88;;
36371;SDS011;22398;51.346;12.372;2023-05-01T05:05:54;18.45;;;11.45;;
36371;SDS011;22398;51.346;12.372;2023-05-01T05:10:59;24.05;;;12.13;;
36371;SDS011;22398;51.346;12.372;2023-05-01T05:16:23;30.30;;;11.90;;
36371;SDS011;22398;51.346;12.372;2023-05-01T05:21:27;23.75;;;12.25;;
36371;SDS011;22398;51.346;12.372;2023-05-01T05:26:33;19.73;;;11.10;;
36371;SDS011;22398;51.346;12.372;2023-05-01T05:31:37;21.98;;;12.43;;
36371;SDS011;22398;51.346;12.372;2023-05-01T05:36:40;24.60;;;11.25;;
36371;SDS011;22398;51.346;12.372;2023-05-01T05:41:46;20.25;;;10.65;;
36371;SDS011;22398;51.346;12.372;2023-05-01T05:46:50;25.80;;;12.05;;
36371;SDS011;22398;51.346;12.372;2023-05-01T05:52:02;22.23;;;10.80;;
36371;SDS011;22398;51.346;12.372;2023-05-01T05:57:07;23.25;;;10.77;;
36371;SDS011;22398;51.346;12.372;2023-05-01T06:02:16;23.83;;;11.07;;
36371;SDS011;22398;51.346;12.372;2023-05-01T06:07:21;21.45;;;11.38;;
36371;SDS011;22398;51.346;12.372;2023-05-01T06:12:26;19.70;;;10.38;;
36371;SDS011;22398;51.346;12.372;2023-05-01T06:22:35;19.95;;;10.80;;
36371;SDS011;22398;51.346;12.372;2023-05-01T06:27:48;23.42;;;10.40;;
36371;SDS011;22398;51.346;12.372;2023-05-01T06:32:54;19.13;;;10.23;;
36371;SDS011;22398;51.346;12.372;2023-05-01T06:37:59;26.17;;;10.43;;
36371;SDS011;22398;51.346;12.372;2023-05-01T06:43:05;22.60;;;9.85;;
36371;SDS011;22398;51.346;12.372;2023-05-01T06:48:08;22.00;;;10.50;;
36371;SDS011;22398;51.346;12.372;2023-05-01T06:53:12;22.83;;;10.02;;
36371;SDS011;22398;51.346;12.372;2023-05-01T06:58:17;24.65;;;10.65;;
36371;SDS011;22398;51.346;12.372;2023-05-01T07:03:25;17.83;;;9.07;;
36371;SDS011;22398;51.346;12.372;2023-05-01T07:08:29;16.58;;;7.97;;
36371;SDS011;22398;51.346;12.372;2023-05-01T07:13:34;14.00;;;8.30;;
36371;SDS011;22398;51.346;12.372;2023-05-01T07:18:39;15.48;;;8.68;;
36371;SDS011;22398;51.346;12.372;2023-05-01T07:23:43;20.55;;;9.00;;
36371;SDS011;22398;51.346;12.372;2023-05-01T07:28:48;18.52;;;9.77;;
36371;SDS011;22398;51.346;12.372;2023-05-01T07:33:52;18.42;;;9.82;;
36371;SDS011;22398;51.346;12.372;2023-05-01T07:38:56;17.95;;;9.20;;
36371;SDS011;22398;51.346;12.372;2023-05-01T07:44:01;20.83;;;8.88;;
36371;SDS011;22398;51.346;12.372;2023-05-01T07:49:04;17.70;;;8.93;;
36371;SDS011;22398;51.346;12.372;2023-05-01T07:54:08;21.25;;;9.73;;
36371;SDS011;22398;51.346;12.372;2023-05-01T07:59:14;22.40;;;10.80;;
36371;SDS011;22398;51.346;12.372;2023-05-01T08:04:17;19.88;;;9.88;;
36371;SDS011;22398;51.346;12.372;2023-05-01T08:09:24;20.00;;;9.52;;
36371;SDS011;22398;51.346;12.372;2023-05-01T08:14:28;19.75;;;9.77;;
36371;SDS011;22398;51.346;12.372;2023-05-01T08:19:32;18.15;;;9.13;;
36371;SDS011;22398;51.346;12.372;2023-05-01T08:24:37;23.13;;;10.57;;
36371;SDS011;22398;51.346;12.372;2023-05-01T08:29:44;19.90;;;10.23;;
36371;SDS011;22398;51.346;12.372;2023-05-01T08:34:47;16.50;;;9.30;;
36371;SDS011;22398;51.346;12.372;2023-05-01T08:39:51;20.27;;;8.85;;
36371;SDS011;22398;51.346;12.372;2023-05-01T08:44:56;15.75;;;8.73;;
36371;SDS011;22398;51.346;12.372;2023-05-01T08:50:02;16.25;;;8.48;;
36371;SDS011;22398;51.346;12.372;2023-05-01T08:55:07;16.65;;;8.48;;
36371;SDS011;22398;51.346;12.372;2023-05-01T09:00:16;16.17;;;8.40;;
36371;SDS011;22398;51.346;12.372;2023-05-01T09:05:21;20.42;;;10.10;;
36371;SDS011;22398;51.346;12.372;2023-05-01T09:10:25;16.77;;;9.23;;
36371;SDS011;22398;51.346;12.372;2023-05-01T09:15:30;15.48;;;9.38;;
36371;SDS011;22398;51.346;12.372;2023-05-01T09:20:35;16.70;;;8.57;;
36371;SDS011;22398;51.346;12.372;2023-05-01T09:25:39;15.38;;;7.15;;
36371;SDS011;22398;51.346;12.372;2023-05-01T09:30:44;16.33;;;7.72;;
36371;SDS011;22398;51.346;12.372;2023-05-01T09:35:48;16.33;;;7.80;;
36371;SDS011;22398;51.346;12.372;2023-05-01T09:40:53;15.68;;;7.60;;
36371;SDS011;22398;51.346;12.372;2023-05-01T09:46:00;14.30;;;6.28;;
36371;SDS011;22398;51.346;12.372;2023-05-01T09:51:21;10.02;;;5.78;;
36371;SDS011;22398;51.346;12.372;2023-05-01T09:56:27;14.75;;;7.53;;
36371;SDS011;22398;51.346;12.372;2023-05-01T10:01:39;11.05;;;6.10;;
36371;SDS011;22398;51.346;12.372;2023-05-01T10:06:43;10.45;;;6.07;;
36371;SDS011;22398;51.346;12.372;2023-05-01T10:11:47;17.00;;;6.78;;
36371;SDS011;22398;51.346;12.372;2023-05-01T10:16:54;11.75;;;6.13;;
36371;SDS011;22398;51.346;12.372;2023-05-01T10:21:58;12.52;;;6.82;;
36371;SDS011;22398;51.346;12.372;2023-05-01T10:27:02;14.68;;;5.00;;
36371;SDS011;22398;51.346;12.372;2023-05-01T10:32:09;7.97;;;4.45;;
36371;SDS011;22398;51.346;12.372;2023-05-01T10:42:19;5.70;;;3.15;;
36371;SDS011;22398;51.346;12.372;2023-05-01T11:03:58;9.73;;;3.58;;
36371;SDS011;22398;51.346;12.372;2023-05-01T11:20:10;9.60;;;4.30;;
36371;SDS011;22398;51.346;12.372;2023-05-01T11:25:18;9.32;;;3.88;;
36371;SDS011;22398;51.346;12.372;2023-05-01T11:30:24;4.30;;;3.05;;
36371;SDS011;22398;51.346;12.372;2023-05-01T11:35:30;8.18;;;3.00;;
36371;SDS011;22398;51.346;12.372;2023-05-01T11:40:34;8.73;;;2.92;;
36371;SDS011;22398;51.346;12.372;2023-05-01T11:45:38;6.22;;;3.47;;
36371;SDS011;22398;51.346;12.372;2023-05-01T11:50:43;6.65;;;3.60;;
36371;SDS011;22398;51.346;12.372;2023-05-01T11:55:46;10.27;;;4.32;;
36371;SDS011;22398;51.346;12.372;2023-05-01T12:00:50;8.23;;;4.32;;
36371;SDS011;22398;51.346;12.372;2023-05-01T12:05:55;10.30;;;4.30;;
36371;SDS011;22398;51.346;12.372;2023-05-01T12:10:58;10.27;;;5.20;;
36371;SDS011;22398;51.346;12.372;2023-05-01T12:16:02;7.97;;;4.70;;
36371;SDS011;22398;51.346;12.372;2023-05-01T12:21:08;9.03;;;4.77;;
36371;SDS011;22398;51.346;12.372;2023-05-01T12:26:18;9.02;;;4.68;;
36371;SDS011;22398;51.346;12.372;2023-05-01T12:31:24;6.90;;;3.80;;
36371;SDS011;22398;51.346;12.372;2023-05-01T12:36:31;7.28;;;3.65;;
36371;SDS011;22398;51.346;12.372;2023-05-01T12:41:36;7.90;;;4.20;;
36371;SDS011;22398;51.346;12.372;2023-05-01T12:51:46;7.55;;;5.10;;
36371;SDS011;22398;51.346;12.372;2023-05-01T12:56:50;11.32;;;3.80;;
36371;SDS011;22398;51.346;12.372;2023-05-01T13:01:55;9.33;;;4.37;;
36371;SDS011;22398;51.346;12.372;2023-05-01T13:07:03;7.45;;;3.33;;
36371;SDS011;22398;51.346;12.372;2023-05-01T13:12:13;9.63;;;4.53;;
36371;SDS011;22398;51.346;12.372;2023-05-01T13:17:20;7.60;;;3.70;;
36371;SDS011;22398;51.346;12.372;2023-05-01T13:22:32;6.32;;;3.22;;
36371;SDS011;22398;51.346;12.372;2023-05-01T13:27:37;6.32;;;3.70;;
36371;SDS011;22398;51.346;12.372;2023-05-01T13:32:40;8.90;;;3.92;;
36371;SDS011;22398;51.346;12.372;2023-05-01T13:37:45;11.68;;;5.20;;
36371;SDS011;22398;51.346;12.372;2023-05-01T13:42:50;8.65;;;4.63;;
36371;SDS011;22398;51.346;12.372;2023-05-01T13:47:54;11.57;;;5.32;;
36371;SDS011;22398;51.346;12.372;2023-05-01T13:52:58;8.35;;;4.57;;
36371;SDS011;22398;51.346;12.372;2023-05-01T13:58:02;10.15;;;5.65;;
36371;SDS011;22398;51.346;12.372;2023-05-01T14:03:06;8.63;;;4.80;;
36371;SDS011;22398;51.346;12.372;2023-05-01T14:08:14;6.45;;;4.18;;
36371;SDS011;22398;51.346;12.372;2023-05-01T14:13:17;9.15;;;5.10;;
36371;SDS011;22398;51.346;12.372;2023-05-01T14:18:21;6.65;;;4.10;;
36371;SDS011;22398;51.346;12.372;2023-05-01T14:23:26;6.40;;;4.00;;
36371;SDS011;22398;51.346;12.372;2023-05-01T14:28:36;7.72;;;4.63;;
36371;SDS011;22398;51.346;12.372;2023-05-01T14:33:43;8.65;;;5.07;;
36371;SDS011;22398;51.346;12.372;2023-05-01T14:38:49;9.30;;;4.87;;
36371;SDS011;22398;51.346;12.372;2023-05-01T14:43:52;11.00;;;5.82;;
36371;SDS011;22398;51.346;12.372;2023-05-01T14:48:55;10.25;;;4.40;;
36371;SDS011;22398;51.346;12.372;2023-05-01T14:54:00;9.88;;;4.72;;
36371;SDS011;22398;51.346;12.372;2023-05-01T14:59:04;13.55;;;6.35;;
36371;SDS011;22398;51.346;12.372;2023-05-01T15:04:07;7.72;;;4.30;;
36371;SDS011;22398;51.346;12.372;2023-05-01T15:14:17;8.37;;;4.63;;
36371;SDS011;22398;51.346;12.372;2023-05-01T15:19:20;8.32;;;3.97;;
36371;SDS011;22398;51.346;12.372;2023-05-01T15:24:24;9.70;;;4.18;;
36371;SDS011;22398;51.346;12.372;2023-05-01T15:29:28;7.60;;;5.30;;
36371;SDS011;22398;51.346;12.372;2023-05-01T15:34:31;8.55;;;4.68;;
36371;SDS011;22398;51.346;12.372;2023-05-01T15:39:36;7.68;;;4.28;;
36371;SDS011;22398;51.346;12.372;2023-05-01T15:44:40;7.38;;;4.07;;
36371;SDS011;22398;51.346;12.372;2023-05-01T15:49:43;8.63;;;5.03;;
36371;SDS011;22398;51.346;12.372;2023-05-01T15:54:48;7.18;;;3.75;;
36371;SDS011;22398;51.346;12.372;2023-05-01T15:59:52;11.23;;;4.40;;
36371;SDS011;22398;51.346;12.372;2023-05-01T16:04:56;7.87;;;4.00;;
36371;SDS011;22398;51.346;12.372;2023-05-01T16:10:01;6.13;;;3.97;;
36371;SDS011;22398;51.346;12.372;2023-05-01T16:15:06;9.77;;;4.05;;
36371;SDS011;22398;51.346;12.372;2023-05-01T16:20:10;7.97;;;4.73;;
36371;SDS011;22398;51.346;12.372;2023-05-01T16:25:17;7.13;;;4.28;;
36371;SDS011;22398;51.346;12.372;2023-05-01T16:30:20;9.13;;;4.22;;
36371;SDS011;22398;51.346;12.372;2023-05-01T16:35:28;7.60;;;4.55;;
36371;SDS011;22398;51.346;12.372;2023-05-01T16:40:34;6.95;;;3.88;;
36371;SDS011;22398;51.346;12.372;2023-05-01T16:45:38;9.65;;;3.72;;
36371;SDS011;22398;51.346;12.372;2023-05-01T16:50:42;8.73;;;4.03;;
36371;SDS011;22398;51.346;12.372;2023-05-01T16:55:47;6.93;;;3.53;;
36371;SDS011;22398;51.346;12.372;2023-05-01T17:00:50;7.28;;;4.30;;
36371;SDS011;22398;51.346;12.372;2023-05-01T17:05:54;8.02;;;4.43;;
36371;SDS011;22398;51.346;12.372;2023-05-01T17:11:00;9.85;;;4.90;;
36371;SDS011;22398;51.346;12.372;2023-05-01T17:16:06;10.80;;;5.20;;
36371;SDS011;22398;51.346;12.372;2023-05-01T17:21:11;8.97;;;4.17;;
36371;SDS011;22398;51.346;12.372;2023-05-01T17:26:15;8.45;;;4.28;;
36371;SDS011;22398;51.346;12.372;2023-05-01T17:31:19;8.98;;;3.83;;
36371;SDS011;22398;51.346;12.372;2023-05-01T17:36:23;12.77;;;4.60;;
36371;SDS011;22398;51.346;12.372;2023-05-01T17:41:28;10.43;;;4.78;;
36371;SDS011;22398;51.346;12.372;2023-05-01T17:46:32;9.57;;;4.68;;
36371;SDS011;22398;51.346;12.372;2023-05-01T17:51:39;8.98;;;4.75;;
36371;SDS011;22398;51.346;12.372;2023-05-01T17:56:44;11.88;;;5.10;;
36371;SDS011;22398;51.346;12.372;2023-05-01T18:01:48;8.43;;;4.80;;
36371;SDS011;22398;51.346;12.372;2023-05-01T18:06:52;11.80;;;4.78;;
36371;SDS011;22398;51.346;12.372;2023-05-01T18:11:58;10.15;;;4.88;;
36371;SDS011;22398;51.346;12.372;2023-05-01T18:17:02;14.23;;;6.30;;
36371;SDS011;22398;51.346;12.372;2023-05-01T18:22:06;8.30;;;5.30;;
36371;SDS011;22398;51.346;12.372;2023-05-01T18:27:11;9.65;;;5.18;;
36371;SDS011;22398;51.346;12.372;2023-05-01T18:37:18;15.93;;;6.70;;
36371;SDS011;22398;51.346;12.372;2023-05-01T18:42:25;11.63;;;6.55;;
36371;SDS011;22398;51.346;12.372;2023-05-01T18:47:28;8.50;;;5.20;;
36371;SDS011;22398;51.346;12.372;2023-05-01T18:52:33;14.60;;;5.95;;
36371;SDS011;22398;51.346;12.372;2023-05-01T18:57:39;10.80;;;6.80;;
36371;SDS011;22398;51.346;12.372;2023-05-01T19:02:44;8.73;;;5.75;;
36371;SDS011;22398;51.346;12.372;2023-05-01T19:07:52;9.85;;;5.28;;
36371;SDS011;22398;51.346;12.372;2023-05-01T19:13:04;9.10;;;4.97;;
36371;SDS011;22398;51.346;12.372;2023-05-01T19:18:08;8.57;;;4.70;;
36371;SDS011;22398;51.346;12.372;2023-05-01T19:23:11;8.68;;;4.30;;
36371;SDS011;22398;51.346;12.372;2023-05-01T19:28:16;8.40;;;5.65;;
36371;SDS011;22398;51.346;12.372;2023-05-01T19:33:19;6.23;;;4.03;;
36371;SDS011;22398;51.346;12.372;2023-05-01T19:38:23;7.47;;;4.10;;
36371;SDS011;22398;51.346;12.372;2023-05-01T19:43:28;14.95;;;4.80;;
36371;SDS011;22398;51.346;12.372;2023-05-01T19:48:31;7.70;;;3.90;;
36371;SDS011;22398;51.346;12.372;2023-05-01T19:53:34;9.68;;;4.50;;
36371;SDS011;22398;51.346;12.372;2023-05-01T19:58:39;9.43;;;4.53;;
36371;SDS011;22398;51.346;12.372;2023-05-01T20:03:42;8.20;;;4.43;;
36371;SDS011;22398;51.346;12.372;2023-05-01T20:08:46;11.75;;;4.75;;
36371;SDS011;22398;51.346;12.372;2023-05-01T20:13:50;8.07;;;4.53;;
36371;SDS011;22398;51.346;12.372;2023-05-01T20:18:54;9.90;;;4.53;;
36371;SDS011;22398;51.346;12.372;2023-05-01T20:23:57;9.73;;;5.35;;
36371;SDS011;22398;51.346;12.372;2023-05-01T20:29:02;9.15;;;4.95;;
36371;SDS011;22398;51.346;12.372;2023-05-01T20:34:06;7.93;;;5.05;;
36371;SDS011;22398;51.346;12.372;2023-05-01T20:39:10;16.10;;;5.72;;
36371;SDS011;22398;51.346;12.372;2023-05-01T20:44:15;14.40;;;5.25;;
36371;SDS011;22398;51.346;12.372;2023-05-01T20:49:18;7.00;;;4.18;;
36371;SDS011;22398;51.346;12.372;2023-05-01T20:54:22;11.73;;;6.47;;
36371;SDS011;22398;51.346;12.372;2023-05-01T20:59:26;11.70;;;6.85;;
36371;SDS011;22398;51.346;12.372;2023-05-01T21:04:30;16.47;;;6.13;;
36371;SDS011;22398;51.346;12.372;2023-05-01T21:09:33;12.65;;;5.85;;
36371;SDS011;22398;51.346;12.372;2023-05-01T21:14:38;13.85;;;6.32;;
36371;SDS011;22398;51.346;12.372;2023-05-01T21:19:43;12.13;;;6.68;;
36371;SDS011;22398;51.346;12.372;2023-05-01T21:24:51;10.80;;;6.40;;
36371;SDS011;22398;51.346;12.372;2023-05-01T21:29:57;13.50;;;6.45;;
36371;SDS011;22398;51.346;12.372;2023-05-01T21:35:02;16.05;;;6.85;;
36371;SDS011;22398;51.346;12.372;2023-05-01T21:40:10;13.77;;;7.13;;
36371;SDS011;22398;51.346;12.372;2023-05-01T21:45:17;14.25;;;6.47;;
36371;SDS011;22398;51.346;12.372;2023-05-01T21:50:22;11.80;;;5.70;;
36371;SDS011;22398;51.346;12.372;2023-05-01T21:55:26;14.27;;;7.88;;
36371;SDS011;22398;51.346;12.372;2023-05-01T22:00:31;12.82;;;6.22;;
36371;SDS011;22398;51.346;12.372;2023-05-01T22:05:34;13.60;;;6.88;;
36371;SDS011;22398;51.346;12.372;2023-05-01T22:10:41;11.02;;;6.13;;
36371;SDS011;22398;51.346;12.372;2023-05-01T22:15:47;15.35;;;6.93;;
36371;SDS011;22398;51.346;12.372;2023-05-01T22:20:51;11.15;;;5.90;;
36371;SDS011;22398;51.346;12.372;2023-05-01T22:25:55;12.25;;;6.85;;
36371;SDS011;22398;51.346;12.372;2023-05-01T22:31:02;9.45;;;6.93;;
36371;SDS011;22398;51.346;12.372;2023-05-01T22:36:05;9.90;;;6.32;;
36371;SDS011;22398;51.346;12.372;2023-05-01T22:41:09;11.48;;;6.30;;
36371;SDS011;22398;51.346;12.372;2023-05-01T22:46:13;12.93;;;5.85;;
36371;SDS011;22398;51.346;12.372;2023-05-01T22:56:21;14.60;;;6.07;;
36371;SDS011;22398;51.346;12.372;2023-05-01T23:06:31;10.80;;;5.63;;
36371;SDS011;22398;51.346;12.372;2023-05-01T23:11:34;10.05;;;4.95;;
36371;SDS011;22398;51.346;12.372;2023-05-01T23:16:39;10.88;;;5.38;;
36371;SDS011;22398;51.346;12.372;2023-05-01T23:21:43;8.60;;;5.05;;
36371;SDS011;22398;51.346;12.372;2023-05-01T23:26:47;15.15;;;5.25;;
36371;SDS011;22398;51.346;12.372;2023-05-01T23:31:52;7.43;;;5.03;;
36371;SDS011;22398;51.346;12.372;2023-05-01T23:36:57;11.80;;;5.07;;
36371;SDS011;22398;51.346;12.372;2023-05-01T23:42:00;10.48;;;4.78;;
36371;SDS011;22398;51.346;12.372;2023-05-01T23:47:05;8.15;;;5.03;;
36371;SDS011;22398;51.346;12.372;2023-05-01T23:52:08;8.90;;;5.77;;
36371;SDS011;22398;51.346;12.372;2023-05-01T23:57:13;9.50;;;6.13;;
